Time;durP1;ratioP1;P1;durP2;ratioP2;P2;SDS_P1;SDS_P2;PMS_P1;PMS_P2;Temp;Humidity;BMP_temperature;BMP_pressure;BME280_temperature;BME280_humidity;BME280_pressure;Samples;Min_cycle;Max_cycle;Signal;HPM_P1;HPM_P2
2022/02/16 00:02:17;;;;;;;17.70;10.23;;;8.40;99.90;;;;;;5035833;28;20036;-77
2022/02/16 00:04:43;;;;;;;18.00;11.00;;;8.30;99.90;;;;;;5054105;28;20028;-80
2022/02/16 00:07:09;;;;;;;15.87;10.20;;;8.40;99.90;;;;;;5053452;28;20462;-77
2022/02/16 00:09:34;;;;;;;14.27;9.90;;;8.40;99.90;;;;;;5019163;28;20090;-77
2022/02/16 00:12:01;;;;;;;16.00;9.97;;;8.40;99.90;;;;;;5053593;28;20453;-77
2022/02/16 00:14:27;;;;;;;18.37;10.43;;;8.40;99.90;;;;;;5035722;28;20452;-77
2022/02/16 00:16:53;;;;;;;15.83;9.87;;;8.40;99.90;;;;;;5053658;28;20021;-77
2022/02/16 00:19:19;;;;;;;14.53;10.03;;;8.40;99.90;;;;;;5035755;28;20028;-77
2022/02/16 00:21:45;;;;;;;19.07;11.17;;;8.40;99.90;;;;;;5019269;28;20604;-77
2022/02/16 00:24:10;;;;;;;18.77;11.93;;;8.50;99.90;;;;;;5053421;28;20037;-77
2022/02/16 00:26:36;;;;;;;18.53;11.20;;;8.40;99.90;;;;;;5053649;28;20052;-77
2022/02/16 00:29:02;;;;;;;19.17;12.43;;;8.40;99.90;;;;;;5053263;28;20127;-78
2022/02/16 00:31:27;;;;;;;19.40;11.53;;;8.40;99.90;;;;;;5053117;28;20394;-77
2022/02/16 00:33:53;;;;;;;15.97;11.03;;;8.40;99.90;;;;;;5035670;28;20028;-77
2022/02/16 00:36:18;;;;;;;19.57;10.97;;;8.40;99.90;;;;;;5053230;28;20447;-77
2022/02/16 00:38:44;;;;;;;18.53;11.73;;;8.40;99.90;;;;;;5018867;28;20108;-77
2022/02/16 00:41:10;;;;;;;18.83;11.63;;;8.50;99.90;;;;;;5053106;28;20021;-77
2022/02/16 00:43:35;;;;;;;16.47;11.00;;;8.40;99.90;;;;;;5018980;28;20052;-77
2022/02/16 00:46:01;;;;;;;19.83;11.80;;;8.50;99.90;;;;;;5035700;28;20087;-77
2022/02/16 00:48:27;;;;;;;22.57;13.13;;;8.50;99.90;;;;;;5035823;28;20031;-77
2022/02/16 00:50:53;;;;;;;24.30;14.77;;;8.50;99.90;;;;;;5053469;28;20024;-77
2022/02/16 00:53:18;;;;;;;25.17;15.10;;;8.50;99.90;;;;;;5052978;28;20051;-79
2022/02/16 00:55:44;;;;;;;25.10;14.67;;;8.50;99.90;;;;;;5018553;28;20041;-77
2022/02/16 00:58:10;;;;;;;24.70;14.60;;;8.50;99.90;;;;;;5053239;28;20036;-77
2022/02/16 01:00:35;;;;;;;26.40;16.50;;;8.50;99.90;;;;;;5053269;28;20449;-80
2022/02/16 01:03:01;;;;;;;26.57;16.27;;;8.50;99.90;;;;;;5018634;28;20021;-77
2022/02/16 01:05:27;;;;;;;26.10;15.37;;;8.50;99.90;;;;;;5053059;28;20500;-77
2022/02/16 01:07:53;;;;;;;28.13;16.73;;;8.60;99.90;;;;;;5053279;28;20025;-77
2022/02/16 01:10:19;;;;;;;25.27;15.00;;;8.50;99.90;;;;;;5052735;28;20028;-77
2022/02/16 01:12:45;;;;;;;27.57;16.70;;;8.60;99.90;;;;;;5053209;28;20381;-77
2022/02/16 01:15:11;;;;;;;24.43;15.97;;;8.70;99.90;;;;;;5052915;28;20029;-77
2022/02/16 01:17:37;;;;;;;29.47;17.27;;;8.50;99.90;;;;;;5052978;28;20471;-78
2022/02/16 01:20:05;;;;;;;24.73;16.17;;;8.40;99.90;;;;;;5035039;28;20037;-77
2022/02/16 01:22:31;;;;;;;24.37;15.53;;;8.60;99.90;;;;;;5053059;28;20056;-77
2022/02/16 01:24:57;;;;;;;25.33;16.80;;;8.50;99.90;;;;;;5034871;28;20032;-77
2022/02/16 01:27:23;;;;;;;25.10;14.97;;;8.60;99.90;;;;;;5052810;28;20100;-77
2022/02/16 01:29:48;;;;;;;23.87;15.93;;;8.60;99.90;;;;;;5052860;28;20457;-77
2022/02/16 01:32:14;;;;;;;22.83;13.73;;;8.60;99.90;;;;;;5035279;28;20021;-77
2022/02/16 01:34:40;;;;;;;23.97;14.30;;;8.60;99.90;;;;;;5053201;28;20466;-77
2022/02/16 01:37:05;;;;;;;23.50;12.90;;;8.60;99.90;;;;;;5034939;28;20031;-79
2022/02/16 01:39:31;;;;;;;19.83;12.43;;;8.60;99.90;;;;;;5018306;28;20048;-78
2022/02/16 01:41:57;;;;;;;28.10;15.93;;;8.60;99.90;;;;;;5053844;28;20083;-78
2022/02/16 01:44:23;;;;;;;25.63;14.67;;;8.60;99.90;;;;;;5038693;28;20524;-77
2022/02/16 01:47:00;;;;;;;18.17;12.43;;;8.60;99.90;;;;;;5056328;28;20044;-77
2022/02/16 01:49:26;;;;;;;23.30;14.73;;;8.60;99.90;;;;;;5055997;28;20489;-77
2022/02/16 01:51:52;;;;;;;25.67;15.07;;;8.60;99.90;;;;;;5038565;28;20053;-78
2022/02/16 01:54:17;;;;;;;21.27;13.90;;;8.60;99.90;;;;;;5056271;28;20447;-77
2022/02/16 01:56:47;;;;;;;28.17;15.73;;;8.60;99.90;;;;;;5056184;28;20542;-77
2022/02/16 01:59:16;;;;;;;27.27;16.47;;;8.60;99.90;;;;;;5056027;28;20025;-77
2022/02/16 02:01:43;;;;;;;22.33;14.97;;;8.60;99.90;;;;;;5038176;28;20029;-78
2022/02/16 02:04:08;;;;;;;27.17;16.20;;;8.60;99.90;;;;;;5038374;28;20035;-78
2022/02/16 02:06:34;;;;;;;23.43;16.13;;;8.70;99.90;;;;;;5056105;28;20107;-79
2022/02/16 02:09:00;;;;;;;24.50;15.07;;;8.60;99.90;;;;;;5021458;28;20025;-78
2022/02/16 02:11:26;;;;;;;28.47;15.77;;;8.60;99.90;;;;;;5037922;28;20039;-77
2022/02/16 02:14:03;;;;;;;24.77;14.77;;;8.60;99.90;;;;;;5056098;28;20025;-78
2022/02/16 02:16:29;;;;;;;25.83;15.67;;;8.70;99.90;;;;;;5055744;28;20028;-78
2022/02/16 02:18:55;;;;;;;28.67;15.57;;;8.70;99.90;;;;;;5055920;28;20369;-79
2022/02/16 02:21:22;;;;;;;26.67;15.60;;;8.60;99.90;;;;;;5055624;28;20064;-78
2022/02/16 02:23:49;;;;;;;30.77;16.50;;;8.70;99.90;;;;;;5021206;28;20036;-78
2022/02/16 02:26:16;;;;;;;27.87;16.30;;;8.70;99.90;;;;;;5055889;28;20036;-78
2022/02/16 02:28:42;;;;;;;24.50;15.40;;;8.60;99.90;;;;;;5055778;28;20051;-77
2022/02/16 02:31:08;;;;;;;27.60;15.47;;;8.70;99.90;;;;;;5037465;28;20025;-77
2022/02/16 02:33:34;;;;;;;25.73;13.63;;;8.80;99.90;;;;;;5037818;28;20036;-77
2022/02/16 02:36:00;;;;;;;21.87;13.50;;;8.70;99.90;;;;;;5037605;28;20032;-77
2022/02/16 02:38:26;;;;;;;24.20;14.67;;;8.70;99.90;;;;;;5037273;28;20025;-77
2022/02/16 02:40:57;;;;;;;19.53;11.40;;;8.70;99.90;;;;;;5037767;28;20029;-78
2022/02/16 02:43:25;;;;;;;21.10;12.87;;;8.60;99.90;;;;;;5055037;28;20023;-78
2022/02/16 02:45:54;;;;;;;21.00;12.40;;;8.70;99.90;;;;;;5054956;28;20025;-79
2022/02/16 02:48:21;;;;;;;25.53;13.07;;;8.70;99.90;;;;;;5055402;28;20025;-77
2022/02/16 02:50:47;;;;;;;19.50;11.33;;;8.70;99.90;;;;;;5037156;28;20037;-79
2022/02/16 02:53:12;;;;;;;19.20;11.83;;;8.70;99.90;;;;;;5054817;28;20376;-79
2022/02/16 02:55:38;;;;;;;22.83;12.70;;;8.80;99.90;;;;;;5054501;28;20099;-77
2022/02/16 02:58:04;;;;;;;22.03;12.23;;;8.70;99.90;;;;;;5020591;28;20021;-78
2022/02/16 03:00:30;;;;;;;18.63;11.57;;;8.80;99.90;;;;;;5020612;28;20037;-77
2022/02/16 03:02:55;;;;;;;22.33;13.00;;;8.80;99.90;;;;;;5054694;28;20033;-77
2022/02/16 03:05:21;;;;;;;20.00;12.67;;;8.70;99.90;;;;;;5020662;28;20465;-77
2022/02/16 03:07:46;;;;;;;20.23;11.80;;;8.80;99.90;;;;;;5036859;28;20029;-77
2022/02/16 03:10:12;;;;;;;17.70;11.00;;;8.80;99.90;;;;;;5036731;28;20048;-77
2022/02/16 03:12:38;;;;;;;22.93;12.20;;;8.80;99.90;;;;;;5054696;28;20032;-77
2022/02/16 03:15:05;;;;;;;21.07;11.93;;;8.80;99.90;;;;;;5054846;28;20025;-77
2022/02/16 03:17:31;;;;;;;20.73;11.00;;;8.80;99.90;;;;;;5054583;28;20025;-76
2022/02/16 03:19:57;;;;;;;21.50;11.53;;;8.80;99.90;;;;;;5054639;28;20086;-77
2022/02/16 03:22:22;;;;;;;22.90;12.30;;;8.80;99.90;;;;;;5054516;28;20029;-78
2022/02/16 03:24:48;;;;;;;21.57;12.90;;;8.80;99.90;;;;;;5054440;28;20033;-78
2022/02/16 03:27:14;;;;;;;23.70;12.80;;;8.80;99.90;;;;;;5036606;28;20033;-77
2022/02/16 03:29:39;;;;;;;18.87;10.90;;;8.70;99.90;;;;;;5036241;28;20031;-78
2022/02/16 03:32:05;;;;;;;19.23;11.77;;;8.80;99.90;;;;;;5054262;28;20373;-78
2022/02/16 03:34:31;;;;;;;19.60;12.90;;;8.80;99.90;;;;;;5036625;28;20032;-78
2022/02/16 03:36:57;;;;;;;22.13;12.20;;;8.80;99.90;;;;;;5054212;28;20036;-78
2022/02/16 03:39:23;;;;;;;21.17;12.13;;;8.70;99.90;;;;;;5054043;28;20031;-78
2022/02/16 03:41:49;;;;;;;20.43;11.17;;;8.80;99.90;;;;;;5036604;28;20525;-78
2022/02/16 03:44:15;;;;;;;20.40;11.13;;;8.80;99.90;;;;;;5054244;28;20033;-77
2022/02/16 03:46:42;;;;;;;18.50;11.23;;;8.80;99.90;;;;;;5054358;28;20053;-77
2022/02/16 03:49:07;;;;;;;18.33;10.20;;;8.80;99.90;;;;;;5036217;28;20481;-77
2022/02/16 03:51:33;;;;;;;16.90;9.93;;;8.80;99.90;;;;;;5020200;28;20032;-77
2022/02/16 03:53:59;;;;;;;18.60;10.63;;;8.80;99.90;;;;;;5019445;28;20401;-79
2022/02/16 03:56:25;;;;;;;13.30;9.20;;;8.80;99.90;;;;;;5053597;28;20041;-78
2022/02/16 03:58:51;;;;;;;15.53;9.23;;;8.80;99.90;;;;;;5054209;28;20029;-78
2022/02/16 04:01:16;;;;;;;15.60;9.47;;;8.90;99.90;;;;;;5053962;28;20036;-78
2022/02/16 04:03:42;;;;;;;14.03;9.40;;;8.80;99.90;;;;;;5036248;28;20047;-77
2022/02/16 04:06:08;;;;;;;13.20;8.70;;;8.70;99.90;;;;;;5018816;28;20032;-78
2022/02/16 04:08:34;;;;;;;15.80;8.97;;;8.60;99.90;;;;;;5035833;28;20029;-77
2022/02/16 04:10:59;;;;;;;14.47;8.47;;;8.70;99.90;;;;;;5035775;28;20050;-77
2022/02/16 04:13:25;;;;;;;13.43;8.00;;;8.70;99.90;;;;;;5019150;28;20032;-82
2022/02/16 04:15:51;;;;;;;16.33;8.93;;;8.70;99.90;;;;;;5035773;28;20033;-77
2022/02/16 04:18:16;;;;;;;13.30;8.60;;;8.70;99.90;;;;;;5019401;28;20029;-78
2022/02/16 04:20:42;;;;;;;13.60;8.27;;;8.70;99.90;;;;;;5035901;28;20064;-77
2022/02/16 04:23:09;;;;;;;15.03;8.93;;;8.70;99.90;;;;;;5053388;28;20040;-79
2022/02/16 04:25:38;;;;;;;13.73;8.10;;;8.70;99.90;;;;;;5019285;28;20025;-78
2022/02/16 04:28:05;;;;;;;15.30;8.50;;;8.70;99.90;;;;;;5053909;28;20079;-77
2022/02/16 04:30:31;;;;;;;13.97;7.97;;;8.70;99.90;;;;;;5053755;28;20039;-77
2022/02/16 04:32:57;;;;;;;14.10;8.43;;;8.90;99.90;;;;;;5053319;28;20025;-78
2022/02/16 04:35:23;;;;;;;15.90;7.80;;;8.70;99.90;;;;;;5035698;28;20029;-77
2022/02/16 04:37:49;;;;;;;12.27;7.33;;;8.80;99.90;;;;;;5053290;28;20473;-77
2022/02/16 04:40:15;;;;;;;14.30;7.90;;;8.70;99.90;;;;;;5053731;28;20029;-77
2022/02/16 04:42:41;;;;;;;14.77;8.80;;;8.70;99.90;;;;;;5053500;28;20021;-77
2022/02/16 04:45:08;;;;;;;15.03;8.60;;;8.70;99.90;;;;;;5035859;28;20489;-77
2022/02/16 04:47:34;;;;;;;14.50;8.03;;;8.80;99.90;;;;;;5035210;28;20089;-77
2022/02/16 04:50:00;;;;;;;15.53;8.93;;;8.80;99.90;;;;;;5053178;28;20059;-78
2022/02/16 04:52:34;;;;;;;14.63;8.47;;;8.80;99.90;;;;;;5035247;28;20025;-78
2022/02/16 04:55:11;;;;;;;14.03;8.27;;;8.80;99.90;;;;;;5036936;28;20107;-77
2022/02/16 04:57:38;;;;;;;16.43;9.17;;;8.80;99.90;;;;;;5052954;28;20029;-79
2022/02/16 05:00:06;;;;;;;18.30;9.27;;;8.80;99.90;;;;;;5018655;28;20025;-79
2022/02/16 05:02:31;;;;;;;16.57;9.17;;;8.80;99.90;;;;;;5053317;28;20032;-77
2022/02/16 05:04:57;;;;;;;13.43;8.57;;;8.80;99.90;;;;;;5035201;28;20541;-80
2022/02/16 05:07:23;;;;;;;17.80;9.30;;;8.80;99.90;;;;;;5018671;28;20037;-78
2022/02/16 05:09:49;;;;;;;16.27;10.00;;;8.80;99.90;;;;;;5035198;28;20044;-78
2022/02/16 05:12:15;;;;;;;16.37;8.63;;;8.80;99.90;;;;;;5035251;28;20474;-79
2022/02/16 05:14:41;;;;;;;17.60;8.90;;;8.80;99.90;;;;;;5053120;28;20100;-78
2022/02/16 05:17:07;;;;;;;15.57;8.77;;;8.80;99.90;;;;;;5036376;28;20044;-78
2022/02/16 05:19:33;;;;;;;15.60;8.57;;;8.80;99.90;;;;;;5056526;28;20381;-80
2022/02/16 05:21:59;;;;;;;12.63;7.23;;;8.90;99.90;;;;;;5056937;28;20043;-78
2022/02/16 05:24:24;;;;;;;16.77;9.83;;;8.80;99.90;;;;;;5039354;28;20178;-78
2022/02/16 05:26:51;;;;;;;15.20;8.47;;;8.90;99.90;;;;;;5022560;28;20489;-78
2022/02/16 05:29:16;;;;;;;13.57;8.67;;;8.90;99.90;;;;;;5056700;28;20335;-78
2022/02/16 05:31:42;;;;;;;13.67;8.40;;;8.90;99.90;;;;;;5038997;28;20032;-80
2022/02/16 05:34:08;;;;;;;15.63;8.57;;;8.90;99.90;;;;;;5022108;28;20043;-78
2022/02/16 05:36:34;;;;;;;13.07;7.37;;;8.90;99.90;;;;;;5038460;28;20440;-79
2022/02/16 05:39:00;;;;;;;13.23;7.90;;;9.00;99.90;;;;;;5038610;28;20032;-77
2022/02/16 05:41:27;;;;;;;12.93;8.03;;;9.00;99.90;;;;;;5056336;28;20496;-80
2022/02/16 05:43:53;;;;;;;13.07;7.40;;;8.90;99.90;;;;;;5056407;28;20115;-78
2022/02/16 05:46:19;;;;;;;12.33;7.80;;;8.90;99.90;;;;;;5056729;28;20111;-78
2022/02/16 05:48:45;;;;;;;12.30;7.13;;;8.90;99.90;;;;;;5056199;28;20033;-78
2022/02/16 05:51:11;;;;;;;12.73;7.47;;;8.80;99.90;;;;;;5055852;28;20032;-78
2022/02/16 05:53:36;;;;;;;11.33;7.37;;;8.90;99.90;;;;;;5038282;28;20060;-77
2022/02/16 05:56:02;;;;;;;12.03;6.73;;;8.90;99.90;;;;;;5044212;28;20130;-78
2022/02/16 05:58:28;;;;;;;13.43;8.00;;;8.90;99.90;;;;;;5032410;28;20033;-79
2022/02/16 06:00:53;;;;;;;11.37;7.37;;;8.90;99.90;;;;;;5055765;28;20075;-77
2022/02/16 06:03:19;;;;;;;12.20;7.90;;;8.90;99.90;;;;;;5054704;28;20044;-78
2022/02/16 06:05:44;;;;;;;12.83;8.03;;;8.90;99.90;;;;;;5054084;28;20060;-77
2022/02/16 06:08:11;;;;;;;10.80;7.13;;;8.90;99.90;;;;;;5055041;28;20082;-78
2022/02/16 06:10:36;;;;;;;11.77;6.97;;;9.00;99.90;;;;;;5055771;28;20063;-78
2022/02/16 06:13:41;;;;;;;10.63;7.30;;;8.90;99.90;;;;;;5053193;28;20064;-79
2022/02/16 06:16:06;;;;;;;13.82;7.55;;;9.00;99.90;;;;;;5040031;28;20546;-78
2022/02/16 06:18:32;;;;;;;13.37;7.80;;;9.00;99.90;;;;;;5036550;28;20029;-78
2022/02/16 06:20:58;;;;;;;12.93;7.70;;;9.00;99.90;;;;;;5054811;28;20405;-78
2022/02/16 06:23:24;;;;;;;11.93;7.93;;;9.00;99.90;;;;;;5055013;28;20074;-78
2022/02/16 06:25:50;;;;;;;11.03;7.70;;;9.00;99.90;;;;;;5055225;28;20473;-80
2022/02/16 06:28:15;;;;;;;10.87;7.20;;;9.00;99.90;;;;;;5036845;28;20482;-78
2022/02/16 06:30:41;;;;;;;12.40;8.10;;;9.00;99.90;;;;;;5036941;28;20393;-78
2022/02/16 06:33:07;;;;;;;12.33;7.53;;;9.00;99.90;;;;;;5055100;28;20021;-79
2022/02/16 06:35:34;;;;;;;12.47;8.03;;;9.00;99.90;;;;;;5053470;28;20388;-78
2022/02/16 06:38:00;;;;;;;15.70;7.87;;;9.00;99.90;;;;;;5054399;28;20083;-78
2022/02/16 06:40:27;;;;;;;12.67;7.37;;;9.00;99.90;;;;;;5054850;28;20424;-78
2022/02/16 06:42:54;;;;;;;14.20;7.27;;;9.10;99.90;;;;;;5054686;28;20108;-78
2022/02/16 06:45:20;;;;;;;12.10;7.50;;;9.10;99.90;;;;;;5036889;28;20473;-77
2022/02/16 06:47:45;;;;;;;12.17;6.77;;;9.10;99.90;;;;;;5018852;28;20029;-79
2022/02/16 06:50:11;;;;;;;11.13;6.93;;;9.10;99.90;;;;;;5020045;28;20061;-78
2022/02/16 06:52:37;;;;;;;11.30;6.47;;;9.10;99.90;;;;;;5036625;28;20033;-78
2022/02/16 06:55:03;;;;;;;11.33;5.63;;;9.10;99.90;;;;;;5054708;28;20029;-77
2022/02/16 06:57:29;;;;;;;12.60;6.93;;;9.20;99.90;;;;;;5034138;28;20049;-78
2022/02/16 06:59:55;;;;;;;11.20;6.60;;;9.30;99.90;;;;;;5051181;28;20498;-77
2022/02/16 07:02:20;;;;;;;11.37;6.43;;;9.20;99.90;;;;;;5044358;28;20028;-77
2022/02/16 07:04:46;;;;;;;11.20;6.07;;;9.20;99.90;;;;;;5040681;28;20026;-78
2022/02/16 07:07:11;;;;;;;9.97;5.67;;;9.20;99.90;;;;;;5035199;28;20032;-79
2022/02/16 07:09:37;;;;;;;10.10;6.40;;;9.20;99.90;;;;;;5048806;28;20125;-77
2022/02/16 07:12:03;;;;;;;11.43;6.33;;;9.30;99.90;;;;;;5035437;28;20166;-79
2022/02/16 07:14:29;;;;;;;10.37;5.77;;;9.20;99.90;;;;;;5052584;28;20032;-78
2022/02/16 07:16:56;;;;;;;8.73;4.90;;;9.20;99.90;;;;;;5017992;28;20024;-80
2022/02/16 07:19:24;;;;;;;9.63;5.43;;;9.30;99.90;;;;;;5052958;28;20136;-79
2022/02/16 07:21:50;;;;;;;8.63;4.77;;;9.30;99.90;;;;;;5035331;28;20028;-77
2022/02/16 07:24:15;;;;;;;12.40;5.90;;;9.30;99.90;;;;;;5029246;28;20389;-77
2022/02/16 07:26:41;;;;;;;7.73;4.40;;;9.30;99.90;;;;;;5031016;28;20452;-77
2022/02/16 07:29:07;;;;;;;8.47;4.60;;;9.40;99.90;;;;;;5052603;28;20469;-77
2022/02/16 07:31:32;;;;;;;7.03;3.57;;;9.30;99.90;;;;;;5052692;28;20033;-77
2022/02/16 07:33:58;;;;;;;9.73;4.60;;;9.40;99.90;;;;;;5053066;28;20037;-77
2022/02/16 07:36:23;;;;;;;9.50;4.20;;;9.40;99.90;;;;;;5054459;28;20025;-78
2022/02/16 07:38:49;;;;;;;7.53;3.73;;;9.40;99.90;;;;;;5036419;28;20465;-76
2022/02/16 07:41:15;;;;;;;8.53;4.60;;;9.40;99.90;;;;;;5002886;28;20052;-76
2022/02/16 07:43:41;;;;;;;8.43;4.30;;;9.40;99.90;;;;;;5054180;28;20037;-75
2022/02/16 07:46:08;;;;;;;8.03;3.67;;;9.40;99.90;;;;;;5035792;28;20032;-75
2022/02/16 07:48:34;;;;;;;6.83;3.87;;;9.50;99.90;;;;;;5035827;28;20035;-77
2022/02/16 07:51:00;;;;;;;6.83;3.73;;;9.50;99.90;;;;;;5035879;28;20025;-75
2022/02/16 07:53:26;;;;;;;8.53;4.10;;;9.50;99.90;;;;;;5036034;28;20029;-76
2022/02/16 07:55:51;;;;;;;6.97;3.40;;;9.50;99.90;;;;;;5053699;28;20045;-76
2022/02/16 07:58:17;;;;;;;8.50;4.23;;;9.50;99.90;;;;;;5035985;28;20087;-76
2022/02/16 08:00:43;;;;;;;7.47;3.73;;;9.60;99.90;;;;;;5034952;28;20485;-77
2022/02/16 08:03:09;;;;;;;7.33;3.63;;;9.70;99.90;;;;;;5053862;28;20360;-75
2022/02/16 08:05:35;;;;;;;8.83;4.10;;;9.70;99.90;;;;;;5053464;28;20108;-76
2022/02/16 08:08:01;;;;;;;8.57;4.13;;;9.70;99.90;;;;;;5035415;28;20036;-77
2022/02/16 08:10:27;;;;;;;8.63;4.30;;;9.70;99.90;;;;;;5035635;28;20025;-77
2022/02/16 08:12:58;;;;;;;8.70;3.90;;;9.80;99.90;;;;;;5035674;28;20393;-75
2022/02/16 08:15:25;;;;;;;9.73;4.77;;;9.70;99.90;;;;;;5051056;28;20107;-76
2022/02/16 08:17:50;;;;;;;7.90;4.07;;;9.80;99.90;;;;;;5052840;28;20029;-76
2022/02/16 08:20:16;;;;;;;10.77;4.43;;;9.80;99.90;;;;;;5053140;28;20462;-75
2022/02/16 08:22:42;;;;;;;8.23;4.03;;;9.80;99.90;;;;;;5035485;28;20029;-76
2022/02/16 08:25:09;;;;;;;9.17;4.10;;;9.80;99.90;;;;;;5018943;28;20042;-75
2022/02/16 08:27:35;;;;;;;9.40;4.47;;;9.90;99.90;;;;;;5052828;28;20029;-76
2022/02/16 08:30:00;;;;;;;9.30;4.40;;;9.90;99.90;;;;;;5036042;28;20044;-76
2022/02/16 08:32:26;;;;;;;10.63;4.80;;;10.00;99.90;;;;;;5019102;28;20021;-75
2022/02/16 08:34:52;;;;;;;11.87;5.37;;;10.00;99.90;;;;;;5035560;28;20444;-75
2022/02/16 08:37:18;;;;;;;13.07;6.07;;;10.10;99.90;;;;;;5053326;28;20029;-76
2022/02/16 08:39:44;;;;;;;12.30;6.23;;;10.10;99.90;;;;;;5035147;28;20040;-76
2022/02/16 08:42:11;;;;;;;13.03;6.57;;;10.10;99.90;;;;;;5035624;28;20056;-75
2022/02/16 08:44:37;;;;;;;12.07;5.60;;;10.20;99.90;;;;;;5035623;28;20029;-74
2022/02/16 08:47:04;;;;;;;13.17;6.47;;;10.20;99.90;;;;;;5035463;28;20021;-75
2022/02/16 08:49:29;;;;;;;14.03;6.27;;;10.20;99.90;;;;;;5053396;28;20083;-75
2022/02/16 08:51:55;;;;;;;14.37;7.63;;;10.20;99.90;;;;;;5037884;28;20465;-75
2022/02/16 08:54:21;;;;;;;12.10;6.80;;;10.20;99.90;;;;;;5038924;28;20025;-75
2022/02/16 08:56:49;;;;;;;13.30;6.93;;;10.20;99.90;;;;;;5056506;28;20103;-75
2022/02/16 08:59:15;;;;;;;16.23;8.00;;;10.20;99.90;;;;;;5039468;28;20393;-76
2022/02/16 09:01:42;;;;;;;15.33;8.37;;;10.20;99.90;;;;;;5057771;28;20029;-77
2022/02/16 09:04:07;;;;;;;16.27;9.30;;;10.30;99.90;;;;;;5039058;28;20070;-77
2022/02/16 09:06:34;;;;;;;16.43;8.23;;;10.30;99.90;;;;;;5039346;28;20037;-76
2022/02/16 09:09:01;;;;;;;17.13;9.23;;;10.30;99.90;;;;;;5022420;28;20037;-76
2022/02/16 09:11:27;;;;;;;16.77;9.00;;;10.30;99.90;;;;;;5038896;28;20028;-76
2022/02/16 09:13:53;;;;;;;17.43;9.03;;;10.30;99.90;;;;;;5056928;28;20028;-75
2022/02/16 09:16:19;;;;;;;17.60;10.07;;;10.30;99.90;;;;;;5056428;28;20029;-76
2022/02/16 09:18:45;;;;;;;15.70;8.97;;;10.40;99.90;;;;;;5056725;28;20031;-75
2022/02/16 09:21:11;;;;;;;16.50;9.57;;;10.40;99.90;;;;;;5021966;28;20120;-75
2022/02/16 09:23:41;;;;;;;14.77;8.30;;;10.40;99.90;;;;;;5038889;28;20021;-75
2022/02/16 09:26:07;;;;;;;18.37;9.83;;;10.40;99.90;;;;;;5038618;28;20107;-76
2022/02/16 09:28:34;;;;;;;17.77;10.18;;;10.50;99.90;;;;;;5039495;28;20029;-76
2022/02/16 09:31:00;;;;;;;15.83;9.23;;;10.50;99.90;;;;;;5056089;28;20392;-75
2022/02/16 09:33:28;;;;;;;17.80;9.80;;;10.50;99.90;;;;;;5039067;28;20103;-75
2022/02/16 09:35:54;;;;;;;16.00;9.13;;;10.50;99.90;;;;;;5021853;28;20029;-75
2022/02/16 09:38:20;;;;;;;19.42;9.27;;;10.50;99.90;;;;;;5056555;28;20116;-75
2022/02/16 09:40:48;;;;;;;18.63;9.80;;;10.60;99.90;;;;;;5021925;28;20548;-75
2022/02/16 09:43:17;;;;;;;16.97;9.43;;;10.50;99.90;;;;;;5038555;28;20416;-76
2022/02/16 09:45:44;;;;;;;17.75;9.43;;;10.60;99.90;;;;;;5038502;28;20029;-77
2022/02/16 09:48:10;;;;;;;17.43;9.07;;;10.60;99.90;;;;;;5021367;28;20029;-78
2022/02/16 09:50:36;;;;;;;17.45;9.02;;;10.60;99.90;;;;;;5038637;28;20035;-75
2022/02/16 09:53:02;;;;;;;17.53;9.43;;;10.60;99.90;;;;;;5038306;28;20411;-75
2022/02/16 09:55:28;;;;;;;21.07;10.77;;;10.70;99.90;;;;;;5037904;28;20540;-76
2022/02/16 09:57:54;;;;;;;21.63;10.43;;;10.70;99.90;;;;;;5055683;28;20064;-76
2022/02/16 10:00:20;;;;;;;18.77;10.60;;;10.70;99.90;;;;;;5056161;28;20025;-75
2022/02/16 10:02:46;;;;;;;20.15;10.20;;;10.80;99.90;;;;;;5055176;28;20025;-75
2022/02/16 10:05:15;;;;;;;22.88;9.70;;;10.80;99.90;;;;;;5038324;28;20032;-75
2022/02/16 10:07:50;;;;;;;16.98;9.23;;;10.90;99.90;;;;;;5055690;28;20452;-75
2022/02/16 10:10:24;;;;;;;21.17;9.87;;;11.00;99.90;;;;;;5039796;28;20032;-75
2022/02/16 10:12:52;;;;;;;18.55;9.93;;;10.90;99.90;;;;;;5055913;28;20098;-78
2022/02/16 10:15:33;;;;;;;21.92;10.10;;;10.90;99.90;;;;;;5055726;28;20048;-76
2022/02/16 10:18:07;;;;;;;21.35;9.82;;;11.00;99.90;;;;;;5055456;28;20037;-75
2022/02/16 10:20:33;;;;;;;19.65;9.82;;;11.10;99.90;;;;;;5037866;28;20033;-76
2022/02/16 10:22:59;;;;;;;30.25;11.10;;;11.00;99.90;;;;;;5037739;28;20400;-77
2022/02/16 10:25:32;;;;;;;22.75;10.95;;;11.10;99.90;;;;;;5055781;28;20094;-75
2022/02/16 10:28:14;;;;;;;24.02;10.27;;;11.20;99.90;;;;;;5055400;28;20036;-76
2022/02/16 10:30:57;;;;;;;16.80;9.65;;;11.20;99.90;;;;;;5037653;28;20377;-76
2022/02/16 10:33:35;;;;;;;19.48;9.73;;;11.30;99.90;;;;;;5048754;28;20385;-76
2022/02/16 10:36:05;;;;;;;22.23;10.68;;;11.40;99.90;;;;;;5037614;28;20116;-75
2022/02/16 10:38:51;;;;;;;20.42;10.07;;;11.40;99.90;;;;;;5055078;28;20025;-76
2022/02/16 10:41:17;;;;;;;23.50;10.63;;;11.50;99.90;;;;;;5055578;28;20369;-76
2022/02/16 10:43:43;;;;;;;22.77;9.77;;;11.50;99.90;;;;;;5055611;28;20031;-76
2022/02/16 10:46:19;;;;;;;20.83;9.40;;;11.50;99.90;;;;;;5037477;28;20570;-76
2022/02/16 10:48:44;;;;;;;22.67;10.30;;;11.50;99.90;;;;;;5037376;28;20090;-76
2022/02/16 10:51:19;;;;;;;20.85;10.30;;;11.50;99.90;;;;;;5054104;28;20463;-75
2022/02/16 10:53:45;;;;;;;21.33;10.68;;;11.60;99.90;;;;;;5036966;28;20047;-75
2022/02/16 10:56:10;;;;;;;22.05;11.30;;;11.60;99.90;;;;;;5037100;28;20139;-76
2022/02/16 10:58:36;;;;;;;22.73;11.38;;;11.60;99.90;;;;;;5055287;28;20112;-76
2022/02/16 11:01:02;;;;;;;26.75;11.50;;;11.60;99.90;;;;;;5037554;28;20037;-76
2022/02/16 11:03:35;;;;;;;22.77;11.98;;;11.60;99.90;;;;;;5055037;28;20417;-76
2022/02/16 11:06:07;;;;;;;20.35;10.75;;;11.70;99.90;;;;;;5054724;28;20052;-76
2022/02/16 11:08:34;;;;;;;24.83;11.10;;;11.60;99.90;;;;;;5054755;28;20040;-76
2022/02/16 11:11:03;;;;;;;25.33;10.63;;;11.70;99.90;;;;;;5054754;28;20028;-77
2022/02/16 11:13:34;;;;;;;27.92;12.18;;;11.60;99.90;;;;;;5054190;28;20446;-77
2022/02/16 11:16:01;;;;;;;20.73;10.48;;;11.70;99.90;;;;;;5036708;28;20397;-75
2022/02/16 11:18:28;;;;;;;23.00;10.68;;;11.70;99.90;;;;;;5036934;28;20116;-76
2022/02/16 11:21:10;;;;;;;22.30;10.27;;;11.70;99.90;;;;;;5036446;28;20055;-76
2022/02/16 11:23:44;;;;;;;23.30;10.00;;;11.70;99.90;;;;;;5054432;28;20037;-75
2022/02/16 11:26:28;;;;;;;21.80;9.35;;;11.70;99.90;;;;;;5036587;28;20370;-74
2022/02/16 11:28:55;;;;;;;16.80;8.60;;;11.70;99.90;;;;;;5053816;28;20032;-77
2022/02/16 11:32:13;;;;;;;21.13;8.93;;;11.80;99.90;;;;;;5036472;28;20017;-74
2022/02/16 11:34:39;;;;;;;18.85;8.40;;;11.80;99.90;;;;;;5021044;28;20052;-75
2022/02/16 11:37:05;;;;;;;20.70;7.25;;;11.80;99.90;;;;;;5054256;28;20032;-76
2022/02/16 11:39:49;;;;;;;19.65;6.75;;;11.80;99.90;;;;;;5036394;28;20029;-75
2022/02/16 11:42:20;;;;;;;15.80;5.72;;;11.80;99.90;;;;;;5053834;28;20025;-76
2022/02/16 11:44:52;;;;;;;17.30;5.63;;;11.80;99.90;;;;;;5054020;28;20021;-73
2022/02/16 11:47:36;;;;;;;16.25;4.72;;;11.90;99.90;;;;;;5036202;28;20029;-76
2022/02/16 11:50:14;;;;;;;19.13;5.13;;;11.90;99.90;;;;;;5054197;28;20025;-75
2022/02/16 11:52:39;;;;;;;18.00;5.75;;;11.90;99.90;;;;;;5036112;28;20120;-75
2022/02/16 11:55:29;;;;;;;17.20;5.53;;;11.90;99.90;;;;;;5053943;28;20170;-75
2022/02/16 11:57:56;;;;;;;29.13;6.40;;;11.90;99.90;;;;;;5035610;28;20068;-76
2022/02/16 12:00:28;;;;;;;16.38;6.47;;;12.00;99.90;;;;;;5035866;28;20151;-73
2022/02/16 12:03:02;;;;;;;18.88;6.15;;;12.00;99.90;;;;;;5036166;28;20115;-76
2022/02/16 12:06:01;;;;;;;19.98;6.30;;;12.00;99.90;;;;;;5035657;28;20373;-76
2022/02/16 12:08:46;;;;;;;11.30;5.75;;;12.00;99.90;;;;;;5053504;28;20025;-77
2022/02/16 12:11:12;;;;;;;18.80;6.35;;;12.00;99.90;;;;;;5053680;28;20078;-74
2022/02/16 12:13:46;;;;;;;19.08;5.75;;;12.00;99.90;;;;;;5053519;28;20021;-75
2022/02/16 12:16:13;;;;;;;;;;;12.10;99.90;;;;;;5053528;28;20060;-74
2022/02/16 12:18:42;;;;;;;19.50;7.05;;;12.10;99.90;;;;;;5053032;28;20284;-75
2022/02/16 12:21:08;;;;;;;16.70;6.47;;;12.10;99.90;;;;;;5053430;28;20048;-73
2022/02/16 12:23:45;;;;;;;19.75;6.45;;;12.10;99.90;;;;;;5018971;28;20389;-74
2022/02/16 12:26:18;;;;;;;11.25;4.93;;;12.10;99.90;;;;;;5037027;28;20496;-76
2022/02/16 12:28:53;;;;;;;15.88;5.20;;;12.10;99.90;;;;;;5034170;28;20485;-75
2022/02/16 12:31:19;;;;;;;12.85;5.55;;;12.20;99.90;;;;;;5035296;28;20025;-75
2022/02/16 12:34:09;;;;;;;14.35;5.88;;;12.20;99.90;;;;;;5019396;28;20087;-74
2022/02/16 12:36:49;;;;;;;22.58;6.13;;;12.20;99.90;;;;;;5027257;28;20059;-77
2022/02/16 12:39:15;;;;;;;18.80;6.32;;;12.30;99.90;;;;;;5035222;28;20040;-74
2022/02/16 12:41:42;;;;;;;16.15;5.65;;;12.20;99.90;;;;;;5016233;28;20057;-75
2022/02/16 12:44:11;;;;;;;17.73;5.93;;;12.20;99.90;;;;;;5020986;28;20052;-73